Time;durP1;ratioP1;P1;durP2;ratioP2;P2;SDS_P1;SDS_P2;PMS_P1;PMS_P2;Temp;Humidity;BMP_temperature;BMP_pressure;BME280_temperature;BME280_humidity;BME280_pressure;Samples;Min_cycle;Max_cycle;Signal;HPM_P1;HPM_P2
2021/06/20 00:01:47;;;;;;;72.65;34.60;;;;;;;;;;5053583;28;20083;-95
2021/06/20 00:04:13;;;;;;;67.72;34.15;;;;;;;;;;5053770;28;20056;-95
2021/06/20 00:06:38;;;;;;;71.70;34.35;;;;;;;;;;5053496;28;20079;-95
2021/06/20 00:09:08;;;;;;;69.13;33.83;;;;;;;;;;5054868;28;20060;-95
2021/06/20 00:11:34;;;;;;;75.47;36.03;;;;;;;;;;5053545;28;20468;-95
2021/06/20 00:13:59;;;;;;;74.70;35.35;;;;;;;;;;5053486;28;20025;-95
2021/06/20 00:16:25;;;;;;;79.82;37.38;;;;;;;;;;5053558;28;20149;-94
2021/06/20 00:18:51;;;;;;;81.35;38.58;;;;;;;;;;5053015;28;20525;-94
2021/06/20 00:21:16;;;;;;;72.38;34.88;;;;;;;;;;5054686;28;20021;-95
2021/06/20 00:23:41;;;;;;;84.45;42.45;;;;;;;;;;5054530;28;20040;-94
2021/06/20 00:26:06;;;;;;;76.50;35.75;;;;;;;;;;5054346;28;20017;-94
2021/06/20 00:28:32;;;;;;;83.38;38.17;;;;;;;;;;5053351;28;20483;-94
2021/06/20 00:30:57;;;;;;;72.82;34.58;;;;;;;;;;5053026;28;20017;-94
2021/06/20 00:33:22;;;;;;;79.53;37.22;;;;;;;;;;5053059;28;20025;-95
2021/06/20 00:35:47;;;;;;;67.80;33.58;;;;;;;;;;5053145;28;20036;-96
2021/06/20 00:38:13;;;;;;;70.97;35.65;;;;;;;;;;5052910;28;20103;-95
2021/06/20 00:40:38;;;;;;;83.40;36.78;;;;;;;;;;5053007;28;20045;-93
2021/06/20 00:43:03;;;;;;;74.30;35.25;;;;;;;;;;5052702;28;20739;-94
2021/06/20 00:45:28;;;;;;;73.22;33.83;;;;;;;;;;5052793;28;20089;-94
2021/06/20 00:47:55;;;;;;;74.43;35.83;;;;;;;;;;5052875;28;20025;-95
2021/06/20 00:50:20;;;;;;;70.35;34.33;;;;;;;;;;5052776;28;20029;-95
2021/06/20 00:52:46;;;;;;;77.70;36.05;;;;;;;;;;5054180;28;20487;-95
2021/06/20 00:55:11;;;;;;;77.35;36.83;;;;;;;;;;5053994;28;20020;-95
2021/06/20 00:57:36;;;;;;;82.03;38.03;;;;;;;;;;5053534;28;20033;-94
2021/06/20 01:00:04;;;;;;;65.25;32.03;;;;;;;;;;5052270;28;20111;-95
2021/06/20 01:02:29;;;;;;;73.53;35.90;;;;;;;;;;5052566;28;20414;-95
2021/06/20 01:04:57;;;;;;;77.85;36.28;;;;;;;;;;5052648;28;20021;-93
2021/06/20 01:07:23;;;;;;;80.78;39.83;;;;;;;;;;5052604;28;20021;-95
2021/06/20 01:09:49;;;;;;;76.78;37.60;;;;;;;;;;5052449;28;20120;-94
2021/06/20 01:12:15;;;;;;;77.15;37.55;;;;;;;;;;5052113;28;20234;-95
2021/06/20 01:14:41;;;;;;;77.90;36.97;;;;;;;;;;5053518;28;20021;-94
2021/06/20 01:17:06;;;;;;;78.85;37.47;;;;;;;;;;5051870;28;20028;-95
2021/06/20 01:19:33;;;;;;;62.92;30.90;;;;;;;;;;5052120;28;20040;-94
2021/06/20 01:22:16;;;;;;;73.38;37.53;;;;;;;;;;5052154;28;20461;-94
2021/06/20 01:24:42;;;;;;;74.85;36.30;;;;;;;;;;5046131;28;20161;-94
2021/06/20 01:27:07;;;;;;;67.57;34.05;;;;;;;;;;5053353;28;20016;-94
2021/06/20 01:29:34;;;;;;;76.80;37.72;;;;;;;;;;5052594;28;20518;-94
2021/06/20 01:32:00;;;;;;;77.90;37.20;;;;;;;;;;5052558;28;20017;-95
2021/06/20 01:34:25;;;;;;;81.78;37.05;;;;;;;;;;5051797;28;20039;-95
2021/06/20 01:36:50;;;;;;;72.05;37.50;;;;;;;;;;5053292;28;20104;-94
2021/06/20 01:39:16;;;;;;;72.53;36.35;;;;;;;;;;5052846;28;20033;-95
2021/06/20 01:41:41;;;;;;;82.07;39.05;;;;;;;;;;5052340;28;20123;-95
2021/06/20 01:44:06;;;;;;;75.90;35.97;;;;;;;;;;5052230;28;20021;-95
2021/06/20 01:46:31;;;;;;;68.32;35.05;;;;;;;;;;5052045;28;20017;-95
2021/06/20 01:48:57;;;;;;;67.65;35.13;;;;;;;;;;5052261;28;20025;-94
2021/06/20 01:51:22;;;;;;;67.78;33.42;;;;;;;;;;5051680;28;20017;-94
2021/06/20 01:53:47;;;;;;;63.20;32.40;;;;;;;;;;5052192;28;20056;-94
2021/06/20 01:56:12;;;;;;;61.42;31.25;;;;;;;;;;5052080;28;20073;-94
2021/06/20 01:58:37;;;;;;;60.13;31.55;;;;;;;;;;5051725;28;20039;-95
2021/06/20 02:01:02;;;;;;;57.35;31.05;;;;;;;;;;5052110;28;20392;-94
2021/06/20 02:03:28;;;;;;;60.60;31.85;;;;;;;;;;5051990;28;20015;-94
2021/06/20 02:05:56;;;;;;;68.43;31.15;;;;;;;;;;5052107;28;20333;-94
2021/06/20 02:08:21;;;;;;;63.55;32.28;;;;;;;;;;5051609;28;20047;-95
2021/06/20 02:10:50;;;;;;;64.20;32.75;;;;;;;;;;5052237;28;20043;-94
2021/06/20 02:13:16;;;;;;;65.18;32.25;;;;;;;;;;5053355;28;20049;-94
2021/06/20 02:15:42;;;;;;;65.20;31.45;;;;;;;;;;5051822;28;20405;-95
2021/06/20 02:18:07;;;;;;;66.60;34.03;;;;;;;;;;5053227;28;20111;-94
2021/06/20 02:20:32;;;;;;;67.40;33.13;;;;;;;;;;5051729;28;20025;-94
2021/06/20 02:22:58;;;;;;;66.93;31.73;;;;;;;;;;5052997;28;20025;-95
2021/06/20 02:25:23;;;;;;;60.63;32.35;;;;;;;;;;5052032;28;20498;-94
2021/06/20 02:27:50;;;;;;;69.07;32.13;;;;;;;;;;5051829;28;20017;-95
2021/06/20 02:30:16;;;;;;;69.20;34.00;;;;;;;;;;5051844;28;20424;-94
2021/06/20 02:32:42;;;;;;;66.82;32.42;;;;;;;;;;5051931;28;20079;-95
2021/06/20 02:35:08;;;;;;;81.13;36.75;;;;;;;;;;5052887;28;20367;-94
2021/06/20 02:37:34;;;;;;;77.78;36.70;;;;;;;;;;5051732;28;20056;-94
2021/06/20 02:40:00;;;;;;;74.30;35.83;;;;;;;;;;5051805;28;20063;-95
2021/06/20 02:42:25;;;;;;;81.32;37.40;;;;;;;;;;5055260;28;20083;-94
2021/06/20 02:44:50;;;;;;;81.82;37.22;;;;;;;;;;5055502;28;20024;-94
2021/06/20 02:47:16;;;;;;;79.50;35.55;;;;;;;;;;5055499;28;20062;-94
2021/06/20 02:49:41;;;;;;;85.57;37.90;;;;;;;;;;5051808;28;20067;-94
2021/06/20 02:52:07;;;;;;;88.13;38.92;;;;;;;;;;5047813;28;20041;-94
2021/06/20 02:54:33;;;;;;;82.18;37.13;;;;;;;;;;5055589;28;20031;-94
2021/06/20 02:56:58;;;;;;;83.03;35.92;;;;;;;;;;5064944;28;20048;-94
2021/06/20 02:59:24;;;;;;;81.35;36.90;;;;;;;;;;5060589;28;20379;-94
2021/06/20 03:01:49;;;;;;;76.53;35.78;;;;;;;;;;5055010;28;20119;-95
2021/06/20 03:04:14;;;;;;;66.72;31.50;;;;;;;;;;5055051;28;20031;-94
2021/06/20 03:06:39;;;;;;;78.30;35.40;;;;;;;;;;5056028;28;20020;-94
2021/06/20 03:09:05;;;;;;;76.78;35.40;;;;;;;;;;5056440;28;20025;-95
2021/06/20 03:11:30;;;;;;;76.93;34.88;;;;;;;;;;5054765;28;20043;-95
2021/06/20 03:13:55;;;;;;;70.47;35.20;;;;;;;;;;5055015;28;20021;-95
2021/06/20 03:16:20;;;;;;;80.75;37.17;;;;;;;;;;5054855;28;20494;-94
2021/06/20 03:18:46;;;;;;;81.43;36.38;;;;;;;;;;5054898;28;20035;-95
2021/06/20 03:21:11;;;;;;;75.47;36.80;;;;;;;;;;5054627;28;20021;-94
2021/06/20 03:23:37;;;;;;;81.90;37.03;;;;;;;;;;5054807;28;20021;-95
2021/06/20 03:26:02;;;;;;;82.38;38.30;;;;;;;;;;5054627;28;20075;-95
2021/06/20 03:28:27;;;;;;;82.18;37.85;;;;;;;;;;5054773;28;20052;-95
2021/06/20 03:30:53;;;;;;;88.47;39.88;;;;;;;;;;5054570;28;20024;-95
2021/06/20 03:33:18;;;;;;;88.32;38.90;;;;;;;;;;5054399;28;20025;-94
2021/06/20 03:35:43;;;;;;;94.43;39.50;;;;;;;;;;5054480;28;20028;-94
2021/06/20 03:38:08;;;;;;;99.75;40.33;;;;;;;;;;5054600;28;20496;-93
2021/06/20 03:40:34;;;;;;;92.55;40.97;;;;;;;;;;5055435;28;20100;-94
2021/06/20 03:42:59;;;;;;;99.68;41.05;;;;;;;;;;5055345;28;20107;-94
2021/06/20 03:45:24;;;;;;;91.90;39.97;;;;;;;;;;5054208;28;20120;-93
2021/06/20 03:47:49;;;;;;;90.30;41.45;;;;;;;;;;5054336;28;20120;-94
2021/06/20 03:50:14;;;;;;;93.68;41.63;;;;;;;;;;5055543;28;20471;-95
2021/06/20 03:52:40;;;;;;;84.07;37.92;;;;;;;;;;5054747;28;20039;-94
2021/06/20 03:55:06;;;;;;;84.50;39.67;;;;;;;;;;5053917;28;20016;-93
2021/06/20 03:57:31;;;;;;;90.60;37.88;;;;;;;;;;5054118;28;20028;-95
2021/06/20 03:59:57;;;;;;;78.88;35.55;;;;;;;;;;5055480;28;20020;-94
2021/06/20 04:02:22;;;;;;;83.80;37.55;;;;;;;;;;5054010;28;20107;-94
2021/06/20 04:04:47;;;;;;;87.22;38.15;;;;;;;;;;5055160;28;20105;-94
2021/06/20 04:07:13;;;;;;;83.70;34.88;;;;;;;;;;5053885;28;20020;-94
2021/06/20 04:09:39;;;;;;;82.43;35.85;;;;;;;;;;5053352;28;20029;-91
2021/06/20 04:12:04;;;;;;;83.15;34.47;;;;;;;;;;5054041;28;20049;-94
2021/06/20 04:14:30;;;;;;;73.97;40.53;;;;;;;;;;5053564;28;20051;-94
2021/06/20 04:16:55;;;;;;;78.88;33.40;;;;;;;;;;5053489;28;20103;-94
2021/06/20 04:19:21;;;;;;;68.95;31.35;;;;;;;;;;5053400;28;20117;-95
2021/06/20 04:21:46;;;;;;;65.18;31.60;;;;;;;;;;5053443;28;20358;-94
2021/06/20 04:24:11;;;;;;;58.95;30.63;;;;;;;;;;5053438;28;20071;-90
2021/06/20 04:26:36;;;;;;;62.08;29.13;;;;;;;;;;5053296;28;20079;-95
2021/06/20 04:29:02;;;;;;;48.03;28.70;;;;;;;;;;5053329;28;20107;-94
2021/06/20 04:31:27;;;;;;;50.72;27.75;;;;;;;;;;5054527;28;20025;-94
2021/06/20 04:33:52;;;;;;;47.00;23.13;;;;;;;;;;5053375;28;20024;-93
2021/06/20 04:36:17;;;;;;;44.05;23.95;;;;;;;;;;5053342;28;20017;-94
2021/06/20 04:38:43;;;;;;;44.65;21.15;;;;;;;;;;5052979;28;20033;-93
2021/06/20 04:41:12;;;;;;;45.13;21.70;;;;;;;;;;5054201;28;20016;-94
2021/06/20 04:46:14;;;;;;;41.00;21.35;;;;;;;;;;5052626;28;20062;-94
2021/06/20 04:48:39;;;;;;;43.20;22.00;;;;;;;;;;5052882;28;20117;-94
2021/06/20 04:51:05;;;;;;;39.47;23.10;;;;;;;;;;5052736;28;20258;-93
2021/06/20 04:53:30;;;;;;;41.60;21.55;;;;;;;;;;5052803;28;20064;-93
2021/06/20 04:55:55;;;;;;;42.20;20.92;;;;;;;;;;5053816;28;20021;-94
2021/06/20 04:58:20;;;;;;;43.55;20.85;;;;;;;;;;5045919;28;20115;-94
2021/06/20 05:00:45;;;;;;;41.13;22.65;;;;;;;;;;5052588;28;20029;-94
2021/06/20 05:03:11;;;;;;;39.35;22.38;;;;;;;;;;5051794;28;20016;-94
2021/06/20 05:05:36;;;;;;;37.58;21.50;;;;;;;;;;5053753;28;20102;-95
2021/06/20 05:08:01;;;;;;;46.42;23.83;;;;;;;;;;5052533;28;20024;-93
2021/06/20 05:10:26;;;;;;;38.85;21.88;;;;;;;;;;5052604;28;20029;-93
2021/06/20 05:12:55;;;;;;;38.83;19.83;;;;;;;;;;5053589;28;20047;-93
2021/06/20 05:15:20;;;;;;;44.30;23.02;;;;;;;;;;5052418;28;20035;-95
2021/06/20 05:17:45;;;;;;;37.92;22.27;;;;;;;;;;5052435;28;20029;-92
2021/06/20 05:20:11;;;;;;;33.67;17.40;;;;;;;;;;5052143;28;20024;-94
2021/06/20 05:22:36;;;;;;;34.55;20.33;;;;;;;;;;5052406;28;20048;-95
2021/06/20 05:25:02;;;;;;;33.20;19.13;;;;;;;;;;5052226;28;20475;-94
2021/06/20 05:27:27;;;;;;;31.95;18.80;;;;;;;;;;5052641;28;20036;-94
2021/06/20 05:29:52;;;;;;;32.97;17.40;;;;;;;;;;5052185;28;20029;-94
2021/06/20 05:32:17;;;;;;;30.70;17.25;;;;;;;;;;5051986;28;20098;-94
2021/06/20 05:34:42;;;;;;;35.08;17.80;;;;;;;;;;5052386;28;20023;-94
2021/06/20 05:37:08;;;;;;;32.30;21.52;;;;;;;;;;5051890;28;20028;-94
2021/06/20 05:39:33;;;;;;;35.92;18.55;;;;;;;;;;5052151;28;20101;-95
2021/06/20 05:41:58;;;;;;;31.85;17.90;;;;;;;;;;5052116;28;20017;-95
2021/06/20 05:44:23;;;;;;;29.00;17.02;;;;;;;;;;5051704;28;20024;-95
2021/06/20 05:46:49;;;;;;;33.13;18.90;;;;;;;;;;5052194;28;20062;-94
2021/06/20 05:49:14;;;;;;;36.90;18.98;;;;;;;;;;5051789;28;20017;-94
2021/06/20 05:51:39;;;;;;;33.00;19.48;;;;;;;;;;5052108;28;20114;-94
2021/06/20 05:54:04;;;;;;;33.00;17.75;;;;;;;;;;5052009;28;20021;-95
2021/06/20 05:56:30;;;;;;;33.20;17.88;;;;;;;;;;5051773;28;20029;-94
2021/06/20 05:58:55;;;;;;;35.20;19.08;;;;;;;;;;5051989;28;20025;-94
2021/06/20 06:01:20;;;;;;;33.60;17.65;;;;;;;;;;5051694;28;20124;-94
2021/06/20 06:03:46;;;;;;;31.02;19.23;;;;;;;;;;5051810;28;20020;-94
2021/06/20 06:06:11;;;;;;;35.75;17.23;;;;;;;;;;5051867;28;20021;-95
2021/06/20 06:08:36;;;;;;;34.42;18.73;;;;;;;;;;5051767;28;20441;-95
2021/06/20 06:11:01;;;;;;;33.90;17.95;;;;;;;;;;5052092;28;20039;-95
2021/06/20 06:13:27;;;;;;;39.80;18.73;;;;;;;;;;5051598;28;20028;-94
2021/06/20 06:15:52;;;;;;;35.10;17.80;;;;;;;;;;5055120;28;20035;-94
2021/06/20 06:18:17;;;;;;;35.28;18.38;;;;;;;;;;5055794;28;20021;-94
2021/06/20 06:20:42;;;;;;;37.13;19.70;;;;;;;;;;5055666;28;20032;-94
2021/06/20 06:23:10;;;;;;;35.67;17.63;;;;;;;;;;5055840;28;20324;-94
2021/06/20 06:25:35;;;;;;;31.10;16.30;;;;;;;;;;5056691;28;20095;-94
2021/06/20 06:28:01;;;;;;;34.28;19.38;;;;;;;;;;5055826;28;20053;-95
2021/06/20 06:30:26;;;;;;;35.13;18.92;;;;;;;;;;5055743;28;20024;-94
2021/06/20 06:32:51;;;;;;;30.25;16.45;;;;;;;;;;5054966;28;20100;-94
2021/06/20 06:35:17;;;;;;;32.40;18.40;;;;;;;;;;5056694;28;20017;-94
2021/06/20 06:37:42;;;;;;;33.40;16.75;;;;;;;;;;5055499;28;20020;-94
2021/06/20 06:40:09;;;;;;;30.40;17.42;;;;;;;;;;5055370;28;20028;-94
2021/06/20 06:42:34;;;;;;;34.10;18.33;;;;;;;;;;5055293;28;20021;-94
2021/06/20 06:44:59;;;;;;;32.00;17.08;;;;;;;;;;5056719;28;20040;-94
2021/06/20 06:47:25;;;;;;;32.13;17.23;;;;;;;;;;5055456;28;20383;-94
2021/06/20 06:49:51;;;;;;;36.00;17.30;;;;;;;;;;5055403;28;20044;-94
2021/06/20 06:52:16;;;;;;;30.50;17.58;;;;;;;;;;5055174;28;20024;-93
2021/06/20 06:54:50;;;;;;;31.08;17.42;;;;;;;;;;5056310;28;20017;-94
2021/06/20 06:57:15;;;;;;;29.15;17.65;;;;;;;;;;5054788;28;20456;-94
2021/06/20 06:59:41;;;;;;;28.02;16.27;;;;;;;;;;5054830;28;20032;-93
2021/06/20 07:02:06;;;;;;;29.23;13.90;;;;;;;;;;5055164;28;20056;-94
2021/06/20 07:04:31;;;;;;;21.55;11.10;;;;;;;;;;5055061;28;20028;-95
2021/06/20 07:06:56;;;;;;;24.80;12.60;;;;;;;;;;5054854;28;20021;-93
2021/06/20 07:09:22;;;;;;;19.70;10.15;;;;;;;;;;5055304;28;20061;-95
2021/06/20 07:11:47;;;;;;;19.00;9.50;;;;;;;;;;5055575;28;20023;-93
2021/06/20 07:14:14;;;;;;;15.13;9.35;;;;;;;;;;5054788;28;20310;-94
2021/06/20 07:16:39;;;;;;;15.52;9.63;;;;;;;;;;5054880;28;20056;-93
2021/06/20 07:19:04;;;;;;;16.13;7.80;;;;;;;;;;5054604;28;20075;-93
2021/06/20 07:21:29;;;;;;;15.70;8.27;;;;;;;;;;5054541;28;20074;-93
2021/06/20 07:23:54;;;;;;;13.35;8.18;;;;;;;;;;5054439;28;20033;-93
2021/06/20 07:26:20;;;;;;;12.00;7.55;;;;;;;;;;5053633;28;20353;-92
2021/06/20 07:28:47;;;;;;;14.20;7.35;;;;;;;;;;5054974;28;20388;-95
2021/06/20 07:31:13;;;;;;;15.13;7.53;;;;;;;;;;5056503;28;20017;-94
2021/06/20 07:33:38;;;;;;;13.48;6.82;;;;;;;;;;5054883;28;20376;-94
2021/06/20 07:36:03;;;;;;;14.57;6.95;;;;;;;;;;5055711;28;20453;-93
2021/06/20 07:38:29;;;;;;;12.15;6.35;;;;;;;;;;5054558;28;20021;-93
2021/06/20 07:40:54;;;;;;;9.38;6.43;;;;;;;;;;5054577;28;20055;-93
2021/06/20 07:43:22;;;;;;;10.77;5.63;;;;;;;;;;5055663;28;20025;-93
2021/06/20 07:45:47;;;;;;;11.10;6.13;;;;;;;;;;5054441;28;20025;-93
2021/06/20 07:48:12;;;;;;;8.90;5.13;;;;;;;;;;5054438;28;20099;-93
2021/06/20 07:50:38;;;;;;;14.77;5.50;;;;;;;;;;5055309;28;20036;-93
2021/06/20 07:53:03;;;;;;;16.00;5.57;;;;;;;;;;5054432;28;20124;-92
2021/06/20 07:55:29;;;;;;;10.73;4.78;;;;;;;;;;5055542;28;20472;-93
2021/06/20 07:57:54;;;;;;;10.55;4.65;;;;;;;;;;5054152;28;20029;-93
2021/06/20 08:00:20;;;;;;;8.95;4.88;;;;;;;;;;5053636;28;20075;-92
2021/06/20 08:02:45;;;;;;;14.45;4.80;;;;;;;;;;5053646;28;20032;-91
2021/06/20 08:05:11;;;;;;;6.60;4.68;;;;;;;;;;5053405;28;20017;-89
2021/06/20 08:07:36;;;;;;;6.90;4.32;;;;;;;;;;5054968;28;20036;-92
2021/06/20 08:10:02;;;;;;;11.88;4.65;;;;;;;;;;5053444;28;20411;-92
2021/06/20 08:12:28;;;;;;;6.30;3.58;;;;;;;;;;5053523;28;20036;-92
2021/06/20 08:14:53;;;;;;;5.80;3.40;;;;;;;;;;5053257;28;20021;-92
2021/06/20 08:17:19;;;;;;;8.35;3.28;;;;;;;;;;5053505;28;20021;-91
2021/06/20 08:19:44;;;;;;;5.32;3.58;;;;;;;;;;5053799;28;20073;-88
2021/06/20 08:22:10;;;;;;;7.32;3.05;;;;;;;;;;5053152;28;20503;-91
2021/06/20 08:24:38;;;;;;;7.45;3.13;;;;;;;;;;5054451;28;20017;-91
2021/06/20 08:27:04;;;;;;;6.78;2.92;;;;;;;;;;5053180;28;20063;-91
2021/06/20 08:29:30;;;;;;;11.23;2.97;;;;;;;;;;5053077;28;20021;-91
2021/06/20 08:31:55;;;;;;;5.47;2.40;;;;;;;;;;5053133;28;20029;-92
2021/06/20 08:34:20;;;;;;;4.78;2.42;;;;;;;;;;5052930;28;20020;-90
2021/06/20 08:36:47;;;;;;;3.00;2.00;;;;;;;;;;5052429;28;20036;-91
2021/06/20 08:39:12;;;;;;;7.38;2.70;;;;;;;;;;5051565;28;20400;-91
2021/06/20 08:41:39;;;;;;;3.08;2.20;;;;;;;;;;5054027;28;20024;-93
2021/06/20 08:44:13;;;;;;;7.65;2.20;;;;;;;;;;5051626;28;20411;-90
2021/06/20 08:46:40;;;;;;;5.43;1.90;;;;;;;;;;5054009;28;20017;-90
2021/06/20 08:49:05;;;;;;;4.80;1.75;;;;;;;;;;5052768;28;20075;-91
2021/06/20 08:51:31;;;;;;;4.00;1.63;;;;;;;;;;5052554;28;20500;-92
2021/06/20 08:53:56;;;;;;;6.43;1.90;;;;;;;;;;5052592;28;20414;-92
2021/06/20 08:56:22;;;;;;;6.38;1.50;;;;;;;;;;5052493;28;20032;-92
2021/06/20 08:58:47;;;;;;;7.90;1.50;;;;;;;;;;5055420;28;20024;-92
2021/06/20 09:01:13;;;;;;;2.60;1.60;;;;;;;;;;5085335;28;20020;-93
2021/06/20 09:03:39;;;;;;;5.00;1.60;;;;;;;;;;5052785;28;20024;-93
2021/06/20 09:06:14;;;;;;;3.85;1.60;;;;;;;;;;5053636;28;20029;-93
2021/06/20 09:08:44;;;;;;;4.00;1.50;;;;;;;;;;5047159;28;20017;-93
2021/06/20 09:11:20;;;;;;;3.70;1.85;;;;;;;;;;5052381;28;20051;-93
2021/06/20 09:13:45;;;;;;;5.00;1.77;;;;;;;;;;5074895;28;20021;-93
2021/06/20 09:16:11;;;;;;;2.70;1.60;;;;;;;;;;5050702;28;20032;-93
2021/06/20 09:18:36;;;;;;;3.88;1.77;;;;;;;;;;5053693;28;20122;-93
2021/06/20 09:21:07;;;;;;;2.40;1.75;;;;;;;;;;5053394;28;20031;-93
2021/06/20 09:23:38;;;;;;;2.50;1.60;;;;;;;;;;5079582;28;20027;-91
2021/06/20 09:26:03;;;;;;;4.60;1.50;;;;;;;;;;5049081;28;20464;-92
2021/06/20 09:28:32;;;;;;;3.88;1.50;;;;;;;;;;5052082;28;20108;-91
2021/06/20 09:30:59;;;;;;;4.90;1.38;;;;;;;;;;5051998;28;20049;-91
2021/06/20 09:33:28;;;;;;;2.70;1.40;;;;;;;;;;5052295;28;20087;-92
2021/06/20 09:35:57;;;;;;;5.80;1.50;;;;;;;;;;5051995;28;20024;-92
2021/06/20 09:38:26;;;;;;;4.35;1.40;;;;;;;;;;5051914;28;20021;-92
2021/06/20 09:40:52;;;;;;;1.75;1.25;;;;;;;;;;5051821;28;20120;-93
2021/06/20 09:43:18;;;;;;;4.70;1.30;;;;;;;;;;5051880;28;20017;-92
2021/06/20 09:45:44;;;;;;;4.60;1.20;;;;;;;;;;5051946;28;20028;-92
2021/06/20 09:48:20;;;;;;;4.57;1.20;;;;;;;;;;5049078;28;20465;-93
2021/06/20 09:50:45;;;;;;;1.50;1.30;;;;;;;;;;5045273;28;20377;-92
2021/06/20 09:53:10;;;;;;;4.57;1.10;;;;;;;;;;5051605;28;20032;-93
2021/06/20 09:55:36;;;;;;;3.33;1.52;;;;;;;;;;5051335;28;20017;-92
2021/06/20 09:58:02;;;;;;;2.45;1.30;;;;;;;;;;5051596;28;20047;-92
2021/06/20 10:00:37;;;;;;;6.95;1.27;;;;;;;;;;5051602;28;20392;-92
2021/06/20 10:03:03;;;;;;;8.02;1.30;;;;;;;;;;5051823;28;20120;-91
2021/06/20 10:05:28;;;;;;;3.78;1.00;;;;;;;;;;5051357;28;20032;-92
2021/06/20 10:07:53;;;;;;;4.22;1.00;;;;;;;;;;5051683;28;20139;-92
2021/06/20 10:10:19;;;;;;;3.10;0.98;;;;;;;;;;5058055;28;20055;-91
2021/06/20 10:12:44;;;;;;;3.25;1.70;;;;;;;;;;5051957;28;20491;-92
2021/06/20 10:15:10;;;;;;;3.38;0.73;;;;;;;;;;5051045;28;20029;-92
2021/06/20 10:17:38;;;;;;;3.53;0.80;;;;;;;;;;5051406;28;20059;-92
2021/06/20 10:20:05;;;;;;;7.47;0.93;;;;;;;;;;5052658;28;20031;-92
2021/06/20 10:22:35;;;;;;;2.25;0.82;;;;;;;;;;5052567;28;20048;-91
2021/06/20 10:25:00;;;;;;;2.25;0.80;;;;;;;;;;5050625;28;20051;-92
2021/06/20 10:27:30;;;;;;;1.63;0.85;;;;;;;;;;5053169;28;20108;-92
2021/06/20 10:29:56;;;;;;;2.80;0.90;;;;;;;;;;5051400;28;20033;-92
2021/06/20 10:32:22;;;;;;;2.22;0.90;;;;;;;;;;5051347;28;20022;-94
2021/06/20 10:34:57;;;;;;;3.13;0.80;;;;;;;;;;5052742;28;20029;-91
2021/06/20 10:37:23;;;;;;;2.33;1.00;;;;;;;;;;5051576;28;20025;-92
2021/06/20 10:39:49;;;;;;;1.23;0.90;;;;;;;;;;5058552;28;20025;-92
2021/06/20 10:42:14;;;;;;;2.03;0.90;;;;;;;;;;5053113;28;20013;-93
2021/06/20 10:44:42;;;;;;;3.10;0.93;;;;;;;;;;5051510;28;20462;-93
2021/06/20 10:47:07;;;;;;;1.20;1.08;;;;;;;;;;5051744;28;20047;-92
2021/06/20 10:49:33;;;;;;;1.20;0.80;;;;;;;;;;5051512;28;20029;-93
2021/06/20 10:51:58;;;;;;;4.82;0.75;;;;;;;;;;5051704;28;20100;-92
2021/06/20 10:54:27;;;;;;;4.00;0.80;;;;;;;;;;5051291;28;20125;-92
2021/06/20 10:56:57;;;;;;;1.92;0.77;;;;;;;;;;5051607;28;20021;-93
2021/06/20 10:59:23;;;;;;;1.60;0.98;;;;;;;;;;5051382;28;20032;-92
2021/06/20 11:01:48;;;;;;;4.47;1.00;;;;;;;;;;5052820;28;20017;-92
2021/06/20 11:04:13;;;;;;;1.73;0.88;;;;;;;;;;5056344;28;20032;-93
2021/06/20 11:06:38;;;;;;;1.85;1.10;;;;;;;;;;5055133;28;20096;-93
2021/06/20 11:09:09;;;;;;;2.30;1.05;;;;;;;;;;5055095;28;20017;-93
2021/06/20 11:11:35;;;;;;;1.95;1.10;;;;;;;;;;5054629;28;20028;-92
2021/06/20 11:14:00;;;;;;;1.08;0.80;;;;;;;;;;5054843;28;20116;-93
2021/06/20 11:16:45;;;;;;;1.57;0.80;;;;;;;;;;5055296;28;20044;-92
2021/06/20 11:19:18;;;;;;;2.58;0.82;;;;;;;;;;5054826;28;20289;-91
2021/06/20 11:21:43;;;;;;;2.15;1.10;;;;;;;;;;5056598;28;20468;-93
2021/06/20 11:24:10;;;;;;;3.08;0.90;;;;;;;;;;5055011;28;20031;-92
2021/06/20 11:26:35;;;;;;;4.30;0.90;;;;;;;;;;5054748;28;20397;-92
2021/06/20 11:29:01;;;;;;;1.27;0.90;;;;;;;;;;5054834;28;20075;-92
2021/06/20 11:31:26;;;;;;;4.00;1.38;;;;;;;;;;5054962;28;20024;-92
2021/06/20 11:33:52;;;;;;;1.02;0.90;;;;;;;;;;5054781;28;20024;-92
2021/06/20 11:36:17;;;;;;;4.28;0.80;;;;;;;;;;5054874;28;20483;-93
2021/06/20 11:38:43;;;;;;;1.58;0.82;;;;;;;;;;5054823;28;20025;-92
2021/06/20 11:41:12;;;;;;;1.52;0.85;;;;;;;;;;5054727;28;20013;-93
2021/06/20 11:43:51;;;;;;;1.92;0.70;;;;;;;;;;5054560;28;20051;-93
2021/06/20 11:46:17;;;;;;;3.17;0.80;;;;;;;;;;5054560;28;20047;-93
2021/06/20 11:48:52;;;;;;;2.80;0.90;;;;;;;;;;5054875;28;20025;-93
2021/06/20 11:51:51;;;;;;;3.15;0.80;;;;;;;;;;5054671;28;20044;-92
2021/06/20 11:54:20;;;;;;;3.38;1.00;;;;;;;;;;5045276;28;20029;-92
2021/06/20 11:56:46;;;;;;;4.80;1.00;;;;;;;;;;5054356;28;20024;-93
2021/06/20 11:59:12;;;;;;;4.20;0.73;;;;;;;;;;5054701;28;20021;-93
2021/06/20 12:01:40;;;;;;;1.85;0.88;;;;;;;;;;5054536;28;20503;-93
2021/06/20 12:04:06;;;;;;;1.50;0.80;;;;;;;;;;5055521;28;20017;-92
2021/06/20 12:06:31;;;;;;;4.22;0.95;;;;;;;;;;5055284;28;20017;-92
2021/06/20 12:08:57;;;;;;;3.45;1.05;;;;;;;;;;5054151;28;20029;-91
2021/06/20 12:11:32;;;;;;;3.10;0.77;;;;;;;;;;5054336;28;20036;-92
2021/06/20 12:13:57;;;;;;;8.82;1.00;;;;;;;;;;5046881;28;20527;-93
2021/06/20 12:16:22;;;;;;;2.15;1.00;;;;;;;;;;5054182;28;20021;-93
2021/06/20 12:18:48;;;;;;;1.20;0.80;;;;;;;;;;5053900;28;20074;-93
2021/06/20 12:21:30;;;;;;;1.80;0.77;;;;;;;;;;5055230;28;20464;-92
2021/06/20 12:23:56;;;;;;;1.73;1.00;;;;;;;;;;5066504;28;20021;-93
2021/06/20 12:26:29;;;;;;;2.55;0.85;;;;;;;;;;5054168;28;20017;-92
2021/06/20 12:28:55;;;;;;;6.47;1.10;;;;;;;;;;5053617;28;20029;-92
2021/06/20 12:31:20;;;;;;;2.72;1.02;;;;;;;;;;5053928;28;20036;-93
2021/06/20 12:33:45;;;;;;;5.70;1.10;;;;;;;;;;5053999;28;20106;-93
2021/06/20 12:36:11;;;;;;;2.75;0.90;;;;;;;;;;5053419;28;20029;-93
2021/06/20 12:38:38;;;;;;;0.77;0.73;;;;;;;;;;5053874;28;20468;-93
2021/06/20 12:41:03;;;;;;;4.03;0.77;;;;;;;;;;5053374;28;20103;-92
2021/06/20 12:43:29;;;;;;;1.75;1.00;;;;;;;;;;5053671;28;20045;-92
2021/06/20 12:45:59;;;;;;;5.28;1.00;;;;;;;;;;5053686;28;20060;-91
2021/06/20 12:48:24;;;;;;;1.00;0.80;;;;;;;;;;5053580;28;20017;-93
2021/06/20 12:50:51;;;;;;;1.95;0.80;;;;;;;;;;5053356;28;20079;-93
2021/06/20 12:53:26;;;;;;;1.27;0.80;;;;;;;;;;5053754;28;20017;-93
2021/06/20 12:55:51;;;;;;;1.70;0.80;;;;;;;;;;5054454;28;20303;-92
2021/06/20 12:58:16;;;;;;;1.87;0.80;;;;;;;;;;5053195;28;20028;-93
2021/06/20 13:00:42;;;;;;;5.47;0.93;;;;;;;;;;5053100;28;20270;-91
2021/06/20 13:03:07;;;;;;;2.00;0.80;;;;;;;;;;5052948;28;20021;-92
2021/06/20 13:05:35;;;;;;;1.92;0.80;;;;;;;;;;5053948;28;20017;-92
2021/06/20 13:08:01;;;;;;;3.25;0.93;;;;;;;;;;5052261;28;20048;-91
2021/06/20 13:10:26;;;;;;;2.20;0.80;;;;;;;;;;5053904;28;20032;-93
2021/06/20 13:12:52;;;;;;;2.92;1.17;;;;;;;;;;5054245;28;20020;-94
2021/06/20 13:15:17;;;;;;;2.80;1.00;;;;;;;;;;5054085;28;20120;-94
2021/06/20 13:17:42;;;;;;;1.65;0.93;;;;;;;;;;5053302;28;20029;-94
2021/06/20 13:20:09;;;;;;;1.00;0.90;;;;;;;;;;5053352;28;20531;-94
2021/06/20 13:22:34;;;;;;;2.53;1.02;;;;;;;;;;5053298;28;20087;-93
2021/06/20 13:24:59;;;;;;;10.30;0.93;;;;;;;;;;5052401;28;20021;-94
2021/06/20 13:27:24;;;;;;;1.95;0.88;;;;;;;;;;5053197;28;20048;-94
2021/06/20 13:29:50;;;;;;;1.98;1.17;;;;;;;;;;5053894;28;20056;-92
2021/06/20 13:32:15;;;;;;;2.85;0.95;;;;;;;;;;5054586;28;20114;-92
2021/06/20 13:34:40;;;;;;;1.20;0.80;;;;;;;;;;5053529;28;20032;-92
2021/06/20 13:37:07;;;;;;;2.15;1.00;;;;;;;;;;5053588;28;20384;-92
2021/06/20 13:39:34;;;;;;;1.25;0.80;;;;;;;;;;5055806;28;20034;-92
2021/06/20 13:41:59;;;;;;;1.80;1.00;;;;;;;;;;5062387;28;20035;-93
2021/06/20 13:44:24;;;;;;;1.92;0.93;;;;;;;;;;5053253;28;20028;-92
2021/06/20 13:46:50;;;;;;;1.23;0.90;;;;;;;;;;5052891;28;20025;-91
2021/06/20 13:49:16;;;;;;;3.08;0.90;;;;;;;;;;5052845;28;20357;-94
2021/06/20 13:51:41;;;;;;;3.45;0.98;;;;;;;;;;5052966;28;20032;-93
2021/06/20 13:54:06;;;;;;;3.33;0.80;;;;;;;;;;5052529;28;20021;-93
2021/06/20 13:56:31;;;;;;;3.47;1.02;;;;;;;;;;5052371;28;20025;-93
2021/06/20 13:58:57;;;;;;;3.72;0.80;;;;;;;;;;5053680;28;20032;-94
2021/06/20 14:01:22;;;;;;;3.75;1.10;;;;;;;;;;5052283;28;20049;-92
2021/06/20 14:03:47;;;;;;;1.23;0.88;;;;;;;;;;5052497;28;20524;-93
2021/06/20 14:06:12;;;;;;;2.35;1.25;;;;;;;;;;5052673;28;20032;-92
2021/06/20 14:08:37;;;;;;;4.95;0.93;;;;;;;;;;5053397;28;20040;-93
2021/06/20 14:11:03;;;;;;;1.60;0.90;;;;;;;;;;5052592;28;20024;-93
2021/06/20 14:13:28;;;;;;;1.63;0.93;;;;;;;;;;5052416;28;20024;-92
2021/06/20 14:15:53;;;;;;;5.07;0.80;;;;;;;;;;5052559;28;20135;-92
2021/06/20 14:18:18;;;;;;;5.75;0.90;;;;;;;;;;5052227;28;20028;-93
2021/06/20 14:20:43;;;;;;;5.03;0.93;;;;;;;;;;5052059;28;20032;-93
2021/06/20 14:23:09;;;;;;;2.50;0.70;;;;;;;;;;5052328;28;20036;-93
2021/06/20 14:25:34;;;;;;;1.38;0.70;;;;;;;;;;5052943;28;20419;-93